createdAt,value
2019-05-30T00:01:54.147Z,9.5
2019-05-30T00:04:30.127Z,8.5
2019-05-30T00:09:34.098Z,7
2019-05-30T00:12:06.462Z,7.4
2019-05-30T00:14:38.932Z,8
2019-05-30T00:17:11.711Z,8.4
2019-05-30T00:19:44.333Z,7.6
2019-05-30T00:22:16.709Z,8.9
2019-05-30T00:27:20.456Z,9
2019-05-30T00:29:52.648Z,8.3
2019-05-30T00:32:25.151Z,7.5
2019-05-30T00:34:57.817Z,8.7
2019-05-30T00:37:31.677Z,6.3
2019-05-30T00:40:04.181Z,7.9
2019-05-30T00:42:37.831Z,7.9
2019-05-30T00:45:20.380Z,7.5
2019-05-30T00:47:51.234Z,7.7
2019-05-30T00:50:23.619Z,6.6
2019-05-30T00:52:56.394Z,7.7
2019-05-30T00:55:28.723Z,7.5
2019-05-30T00:58:01.072Z,8.2
2019-05-30T01:00:43.127Z,8
2019-05-30T01:03:16.075Z,8.7
2019-05-30T01:05:48.424Z,7.4
2019-05-30T01:08:20.734Z,8.3
2019-05-30T01:10:53.063Z,6.7
2019-05-30T01:13:25.670Z,6.2
2019-05-30T01:15:58.923Z,7.5
2019-05-30T01:18:32.896Z,5.8
2019-05-30T01:21:05.417Z,6.9
2019-05-30T01:23:39.197Z,6.4
2019-05-30T01:26:11.429Z,7.2
2019-05-30T01:28:43.872Z,6.9
2019-05-30T01:31:25.275Z,6.6
2019-05-30T01:33:59.506Z,7.2
2019-05-30T01:36:34.753Z,7.2
2019-05-30T01:39:08.589Z,6.7
2019-05-30T01:41:42.451Z,7.7
2019-05-30T01:44:16.326Z,7.2
2019-05-30T01:46:50.048Z,6.7
2019-05-30T01:49:24.125Z,10.8
2019-05-30T01:51:58.333Z,8.1
2019-05-30T01:54:33.694Z,6.6
2019-05-30T01:57:07.508Z,9
2019-05-30T01:59:42.705Z,7.7
2019-05-30T02:02:16.513Z,6
2019-05-30T02:04:50.311Z,7.9
2019-05-30T02:07:24.089Z,7.2
2019-05-30T02:09:59.105Z,8
2019-05-30T02:12:34.266Z,7.7
2019-05-30T02:15:08.193Z,9.5
2019-05-30T02:17:43.826Z,8.2
2019-05-30T02:20:18.265Z,8
2019-05-30T02:22:52.040Z,8.7
2019-05-30T02:25:25.901Z,8.3
2019-05-30T02:28:00.005Z,8.4
2019-05-30T02:30:35.210Z,7.5
2019-05-30T02:33:10.414Z,7.8
2019-05-30T02:35:47.109Z,7.7
2019-05-30T02:38:20.949Z,8
2019-05-30T02:40:54.908Z,8.2
2019-05-30T02:43:28.775Z,10.6
2019-05-30T02:46:03.415Z,9.2
2019-05-30T02:48:57.825Z,8.4
2019-05-30T02:51:28.155Z,10
2019-05-30T02:54:04.057Z,9.2
2019-05-30T02:56:44.544Z,11
2019-05-30T02:59:18.419Z,10.2
2019-05-30T03:02:00.572Z,10.6
2019-05-30T03:04:35.121Z,10
2019-05-30T03:07:08.954Z,9.8
2019-05-30T03:09:45.110Z,10.2
2019-05-30T03:12:17.743Z,9.6
2019-05-30T03:14:50.200Z,10.6
2019-05-30T03:17:22.802Z,10.5
2019-05-30T03:19:55.319Z,11.4
2019-05-30T03:22:28.225Z,12.4
2019-05-30T03:25:02.769Z,10.1
2019-05-30T03:27:42.565Z,12
2019-05-30T03:31:28.508Z,10.8
2019-05-30T03:34:08.887Z,10.4
2019-05-30T03:36:46.880Z,11
2019-05-30T03:39:21.058Z,10.2
2019-05-30T03:41:54.912Z,11.5
2019-05-30T03:44:28.889Z,12
2019-05-30T03:47:03.818Z,10
2019-05-30T03:49:45.383Z,10.2
2019-05-30T03:52:19.300Z,11.9
2019-05-30T03:54:53.336Z,10.5
2019-05-30T03:57:27.290Z,10.2
2019-05-30T04:00:01.432Z,9.5
2019-05-30T04:02:55.040Z,10
2019-05-30T04:05:19.273Z,9.2
2019-05-30T04:07:53.384Z,8.9
2019-05-30T04:10:27.710Z,10.4
2019-05-30T04:13:01.746Z,9.7
2019-05-30T04:15:36.108Z,9.4
2019-05-30T04:18:11.879Z,9
2019-05-30T04:20:49.003Z,10.5
2019-05-30T04:23:21.512Z,8.7
2019-05-30T04:25:54.468Z,9.2
2019-05-30T04:28:31.761Z,10.3
2019-05-30T04:31:04.336Z,9.3
2019-05-30T04:33:36.829Z,9.2
2019-05-30T04:36:10.485Z,9
2019-05-30T04:38:47.233Z,8.2
2019-05-30T04:41:20.882Z,8.6
2019-05-30T04:43:53.494Z,10.1
2019-05-30T04:46:26.367Z,9.5
2019-05-30T04:48:58.769Z,8.7
2019-05-30T04:51:31.348Z,8.9
2019-05-30T04:54:03.751Z,9
2019-05-30T04:56:36.473Z,7.7
2019-05-30T04:59:10.727Z,7.1
2019-05-30T05:01:49.512Z,6.9
2019-05-30T05:04:22.106Z,7.5
2019-05-30T05:06:54.869Z,8.2
2019-05-30T05:09:27.332Z,8.1
2019-05-30T05:12:00.273Z,8.3
2019-05-30T05:14:32.751Z,8
2019-05-30T05:17:05.683Z,8.8
2019-05-30T05:19:38.095Z,9.1
2019-05-30T05:22:10.815Z,9.8
2019-05-30T05:24:44.459Z,9.7
2019-05-30T05:27:17.627Z,9.5
2019-05-30T05:29:51.198Z,8.7
2019-05-30T05:31:24.902Z,8.2
2019-05-30T05:33:58.739Z,8
2019-05-30T05:36:32.463Z,8.2
2019-05-30T05:39:06.743Z,7.5
2019-05-30T05:41:39.161Z,10.2
2019-05-30T05:44:11.709Z,8.5
2019-05-30T05:46:43.992Z,10.5
2019-05-30T05:49:16.453Z,9.6
2019-05-30T05:51:50.584Z,10.2
2019-05-30T05:54:23.308Z,12.1
2019-05-30T05:56:56.936Z,10.7
2019-05-30T05:59:29.323Z,10.2
2019-05-30T06:02:01.763Z,11
2019-05-30T06:04:34.351Z,9
2019-05-30T06:07:06.644Z,9.1
2019-05-30T06:09:39.089Z,9.8
2019-05-30T06:12:11.347Z,11.2
2019-05-30T06:14:43.708Z,11.5
2019-05-30T06:17:16.923Z,10
2019-05-30T06:19:50.855Z,9.8
2019-05-30T06:22:23.568Z,8.4
2019-05-30T06:24:56.111Z,15.3
2019-05-30T06:27:28.388Z,12.5
2019-05-30T06:30:01.212Z,8.6
2019-05-30T06:32:33.861Z,9.8
2019-05-30T06:35:06.315Z,10.5
2019-05-30T06:37:38.703Z,9.4
2019-05-30T06:40:11.242Z,9.6
2019-05-30T06:42:43.591Z,11.5
2019-05-30T06:45:15.955Z,11.1
2019-05-30T06:47:48.329Z,8
2019-05-30T06:50:20.809Z,12.6
2019-05-30T06:52:54.407Z,15
2019-05-30T06:55:27.274Z,10.9
2019-05-30T06:58:01.158Z,12.6
2019-05-30T07:00:34.033Z,9.8
2019-05-30T07:03:06.454Z,13.6
2019-05-30T07:05:39.673Z,10.7
2019-05-30T07:08:14.528Z,11.1
2019-05-30T07:10:47.498Z,10
2019-05-30T07:13:19.848Z,11.5
2019-05-30T07:15:52.631Z,10.2
2019-05-30T07:18:25.386Z,10
2019-05-30T07:20:59.551Z,11.9
2019-05-30T07:23:32.029Z,14.1
2019-05-30T07:26:05.715Z,9.9
2019-05-30T07:28:38.378Z,10.4
2019-05-30T07:31:27.967Z,9.3
2019-05-30T07:34:03.609Z,13.2
2019-05-30T07:36:37.497Z,11.9
2019-05-30T07:39:11.470Z,8.4
2019-05-30T07:41:45.518Z,9.3
2019-05-30T07:44:28.722Z,9.5
2019-05-30T07:47:02.657Z,11
2019-05-30T07:49:36.916Z,11.3
2019-05-30T07:52:12.266Z,8.7
2019-05-30T07:54:46.099Z,11.1
2019-05-30T07:57:20.048Z,13.4
2019-05-30T07:59:53.986Z,14.4
2019-05-30T08:02:29.512Z,14
2019-05-30T08:05:04.832Z,16
2019-05-30T08:07:47.284Z,16.9
2019-05-30T08:10:21.928Z,19.3
2019-05-30T08:12:55.764Z,17.4
2019-05-30T08:15:29.626Z,14.2
2019-05-30T08:18:05.385Z,16.6
2019-05-30T08:20:39.241Z,15.9
2019-05-30T08:23:12.997Z,12.7
2019-05-30T08:25:46.824Z,13.3
2019-05-30T08:28:20.789Z,14.2
2019-05-30T08:30:56.889Z,11.3
2019-05-30T08:33:33.530Z,12
2019-05-30T08:36:08.814Z,11
2019-05-30T08:38:42.642Z,16.9
2019-05-30T08:41:16.441Z,12.2
2019-05-30T08:43:50.457Z,12.3
2019-05-30T08:46:24.472Z,14.8
2019-05-30T08:49:01.541Z,12.9
2019-05-30T08:51:36.235Z,12.4
2019-05-30T08:54:13.388Z,12.1
2019-05-30T08:56:48.044Z,12
2019-05-30T08:59:22.260Z,13.7
2019-05-30T09:01:54.832Z,13.6
2019-05-30T09:04:27.379Z,11.3
2019-05-30T09:06:59.729Z,10.8
2019-05-30T09:09:32.062Z,11.8
2019-05-30T09:12:04.838Z,13.5
2019-05-30T09:14:37.784Z,10.9
2019-05-30T09:17:14.943Z,13.2
2019-05-30T09:19:48.906Z,11.4
2019-05-30T09:22:21.121Z,10.2
2019-05-30T09:24:53.581Z,11.2
2019-05-30T09:27:25.953Z,11.3
2019-05-30T09:29:58.636Z,9.9
2019-05-30T09:31:25.423Z,10.8
2019-05-30T09:33:59.256Z,11.2
2019-05-30T09:36:33.545Z,9.1
2019-05-30T09:39:07.271Z,8.9
2019-05-30T09:41:42.093Z,10.5
2019-05-30T09:44:19.164Z,8.4
2019-05-30T09:46:53.316Z,8.9
2019-05-30T09:49:27.130Z,9.8
2019-05-30T09:52:01.589Z,9.2
2019-05-30T09:54:35.483Z,9
2019-05-30T09:57:09.441Z,7.9
2019-05-30T09:59:44.593Z,9.4
2019-05-30T10:02:24.123Z,7.4
2019-05-30T10:04:56.696Z,9
2019-05-30T10:07:29.931Z,8.5
2019-05-30T10:10:02.562Z,7.3
2019-05-30T10:12:35.042Z,7.9
2019-05-30T10:15:07.520Z,7.6
2019-05-30T10:17:40.235Z,7.4
2019-05-30T10:20:12.751Z,6.5
2019-05-30T10:22:46.982Z,9.4
2019-05-30T10:25:25.697Z,6.3
2019-05-30T10:27:58.227Z,8.7
2019-05-30T10:30:30.654Z,8.7
2019-05-30T10:33:03.216Z,8.8
2019-05-30T10:35:35.705Z,7.1
2019-05-30T10:38:08.591Z,7.8
2019-05-30T10:40:40.937Z,10
2019-05-30T10:43:13.436Z,8
2019-05-30T10:45:46.514Z,9.1
2019-05-30T10:48:23.463Z,8
2019-05-30T10:50:56.422Z,9.3
2019-05-30T10:53:31.280Z,9.3
2019-05-30T10:56:03.954Z,9
2019-05-30T10:58:37.080Z,14.4
2019-05-30T11:01:09.997Z,9.7
2019-05-30T11:03:42.811Z,9.2
2019-05-30T11:06:15.455Z,7.2
2019-05-30T11:08:49.098Z,7.8
2019-05-30T11:11:23.313Z,8.1
2019-05-30T11:13:57.263Z,9.1
2019-05-30T11:16:31.136Z,7.7
2019-05-30T11:19:08.267Z,9.4
2019-05-30T11:21:42.139Z,8.7
2019-05-30T11:24:18.170Z,8.2
2019-05-30T11:26:54.117Z,9.7
2019-05-30T11:29:35.650Z,7.3
2019-05-30T11:31:30.004Z,9.3
2019-05-30T11:34:05.547Z,7
2019-05-30T11:36:40.307Z,6.3
2019-05-30T11:39:14.892Z,5.4
2019-05-30T11:41:49.505Z,6.8
2019-05-30T11:44:24.966Z,4.6
2019-05-30T11:47:00.006Z,10.8
2019-05-30T11:49:41.798Z,8.5
2019-05-30T11:52:21.972Z,6.4
2019-05-30T11:55:00.899Z,6.2
2019-05-30T11:57:41.030Z,7.2
2019-05-30T12:00:19.157Z,6.3
2019-05-30T12:02:58.655Z,4.4
2019-05-30T12:05:40.257Z,4.9
2019-05-30T12:08:18.065Z,6.1
2019-05-30T12:10:55.177Z,4.8
2019-05-30T12:13:32.521Z,5.3
2019-05-30T12:16:06.079Z,5.4
2019-05-30T12:18:40.400Z,4.7
2019-05-30T12:21:14.454Z,4.3
2019-05-30T12:23:48.399Z,5.4
2019-05-30T12:26:21.405Z,4.1
2019-05-30T12:28:54.206Z,7.5
2019-05-30T12:31:27.946Z,4.1
2019-05-30T12:34:00.645Z,4.2
2019-05-30T12:36:34.952Z,7.7
2019-05-30T12:39:07.752Z,5.6
2019-05-30T12:41:40.230Z,4.6
2019-05-30T12:44:12.971Z,4.7
2019-05-30T12:46:45.345Z,4.8
2019-05-30T12:49:17.937Z,4.4
2019-05-30T12:51:50.566Z,4.4
2019-05-30T12:54:23.241Z,5.9
2019-05-30T12:56:56.538Z,4.3
2019-05-30T12:59:31.067Z,3.5
2019-05-30T13:02:03.550Z,4.5
2019-05-30T13:04:36.064Z,5.5
2019-05-30T13:07:08.475Z,6.4
2019-05-30T13:09:41.292Z,5.6
2019-05-30T13:12:13.679Z,4
2019-05-30T13:14:46.314Z,5.7
2019-05-30T13:17:18.698Z,4.8
2019-05-30T13:19:51.425Z,5.4
2019-05-30T13:22:23.956Z,8.1
2019-05-30T13:24:57.508Z,6.9
2019-05-30T13:27:31.694Z,6.2
2019-05-30T13:31:25.634Z,5.3
2019-05-30T13:34:01.034Z,7.8
2019-05-30T13:36:36.586Z,5.1
2019-05-30T13:39:10.614Z,4
2019-05-30T13:41:45.109Z,4.3
2019-05-30T13:44:19.148Z,4.2
2019-05-30T13:46:55.199Z,4.3
2019-05-30T13:49:30.233Z,7.1
2019-05-30T13:52:03.413Z,5
2019-05-30T13:54:39.094Z,4.4
2019-05-30T13:57:11.775Z,5.2
2019-05-30T13:59:44.426Z,7.6
2019-05-30T14:02:17.582Z,5.3
2019-05-30T14:04:50.337Z,6.5
2019-05-30T14:07:23.225Z,7.8
2019-05-30T14:09:56.352Z,8.1
2019-05-30T14:12:29.165Z,8.4
2019-05-30T14:15:06.300Z,11.1
2019-05-30T14:17:43.440Z,8.9
2019-05-30T14:20:16.080Z,7.8
2019-05-30T14:22:49.035Z,6.5
2019-05-30T14:25:21.546Z,7.5
2019-05-30T14:27:54.376Z,7.6
2019-05-30T14:30:26.984Z,6.5
2019-05-30T14:33:00.083Z,6.4
2019-05-30T14:35:34.206Z,7.1
2019-05-30T14:38:06.911Z,7.2
2019-05-30T14:40:40.959Z,5.2
2019-05-30T14:43:14.331Z,6.6
2019-05-30T14:45:46.839Z,6.5
2019-05-30T14:48:19.817Z,7.7
2019-05-30T14:50:52.379Z,5.9
2019-05-30T14:53:24.855Z,7.7
2019-05-30T14:55:57.166Z,7.6
2019-05-30T14:58:29.674Z,6.7
2019-05-30T15:01:02.256Z,6.9
2019-05-30T15:03:35.231Z,7.6
2019-05-30T15:06:09.110Z,5.2
2019-05-30T15:08:48.627Z,5.8
2019-05-30T15:11:21.126Z,7.7
2019-05-30T15:13:53.643Z,6.7
2019-05-30T15:16:26.076Z,4.7
2019-05-30T15:18:58.642Z,4.9
2019-05-30T15:21:31.059Z,5.8
2019-05-30T15:24:03.537Z,6
2019-05-30T15:26:35.911Z,6.1
2019-05-30T15:29:08.568Z,4.2
2019-05-30T15:31:26.124Z,4.3
2019-05-30T15:34:00.340Z,5.6
2019-05-30T15:36:34.506Z,5.8
2019-05-30T15:39:07.071Z,4.6
2019-05-30T15:41:40.879Z,4.9
2019-05-30T15:44:13.600Z,5.2
2019-05-30T15:46:46.556Z,6.8
2019-05-30T15:49:19.585Z,6.2
2019-05-30T15:51:52.197Z,6.8
2019-05-30T15:54:24.680Z,4
2019-05-30T15:56:57.266Z,4.4
2019-05-30T15:59:29.923Z,4.8
2019-05-30T16:02:02.669Z,3.9
2019-05-30T16:04:35.316Z,4.8
2019-05-30T16:07:07.932Z,4.8
2019-05-30T16:09:46.924Z,3.9
2019-05-30T16:12:21.055Z,6.5
2019-05-30T16:14:54.054Z,4.5
2019-05-30T16:17:26.622Z,6
2019-05-30T16:19:59.287Z,5.9
2019-05-30T16:22:31.854Z,4.4
2019-05-30T16:25:04.379Z,6.4
2019-05-30T16:27:37.463Z,5.6
2019-05-30T16:30:10.264Z,6.8
2019-05-30T16:32:50.940Z,4.7
2019-05-30T16:35:23.676Z,7.6
2019-05-30T16:37:56.309Z,5.2
2019-05-30T16:40:28.848Z,4.3
2019-05-30T16:43:01.599Z,4.5
2019-05-30T16:45:34.246Z,4.7
2019-05-30T16:48:07.306Z,3.3
2019-05-30T16:50:39.900Z,3.7
2019-05-30T16:53:12.642Z,4.3
2019-05-30T16:55:46.026Z,3.4
2019-05-30T16:58:20.257Z,3.5
2019-05-30T17:00:55.522Z,3.3
2019-05-30T17:03:28.291Z,3.5
2019-05-30T17:06:01.510Z,5.2
2019-05-30T17:08:35.907Z,3.4
2019-05-30T17:11:08.483Z,4
2019-05-30T17:13:41.248Z,3.4
2019-05-30T17:16:13.684Z,6.4
2019-05-30T17:18:46.280Z,4.1
2019-05-30T17:21:20.751Z,4.4
2019-05-30T17:23:55.610Z,3.5
2019-05-30T17:26:28.237Z,7.1
2019-05-30T17:29:00.967Z,3.1
2019-05-30T17:31:26.134Z,5
2019-05-30T17:34:02.234Z,5.5
2019-05-30T17:36:35.196Z,5.3
2019-05-30T17:39:07.905Z,5.1
2019-05-30T17:41:40.348Z,4
2019-05-30T17:44:12.968Z,3.4
2019-05-30T17:46:45.160Z,2.9
2019-05-30T17:49:17.687Z,2.9
2019-05-30T17:51:53.054Z,5.2
2019-05-30T17:54:26.101Z,3.6
2019-05-30T17:57:01.092Z,2
2019-05-30T17:59:34.463Z,3.7
2019-05-30T18:02:06.741Z,4.3
2019-05-30T18:04:39.247Z,1.4
2019-05-30T18:07:11.991Z,2.7
2019-05-30T18:09:44.453Z,2.5
2019-05-30T18:12:16.749Z,1.3
2019-05-30T18:14:49.394Z,2.8
2019-05-30T18:17:23.506Z,1.5
2019-05-30T18:19:58.046Z,2.3
2019-05-30T18:22:32.329Z,2.9
2019-05-30T18:25:05.046Z,1.4
2019-05-30T18:27:37.360Z,1.6
2019-05-30T18:30:10.052Z,1.5
2019-05-30T18:32:42.513Z,3.6
2019-05-30T18:35:14.920Z,3.4
2019-05-30T18:37:47.516Z,1.8
2019-05-30T18:40:20.230Z,2.7
2019-05-30T18:42:52.562Z,2.1
2019-05-30T18:45:25.035Z,2.7
2019-05-30T18:47:58.794Z,3.8
2019-05-30T18:50:33.483Z,3.4
2019-05-30T18:53:07.196Z,1.9
2019-05-30T18:55:39.168Z,2.3
2019-05-30T18:58:11.256Z,3.6
2019-05-30T19:00:44.088Z,2
2019-05-30T19:03:16.141Z,3.8
2019-05-30T19:05:48.595Z,2
2019-05-30T19:08:20.787Z,1.6
2019-05-30T19:10:53.105Z,2.1
2019-05-30T19:13:24.921Z,2.8
2019-05-30T19:15:56.878Z,3.2
2019-05-30T19:18:29.429Z,1.8
2019-05-30T19:21:01.278Z,3
2019-05-30T19:23:34.219Z,1.4
2019-05-30T19:26:11.701Z,1
2019-05-30T19:28:43.592Z,1.1
2019-05-30T19:31:26.487Z,2.2
2019-05-30T19:34:01.830Z,5.2
2019-05-30T19:36:35.858Z,2.1
2019-05-30T19:39:09.566Z,2.8
2019-05-30T19:41:53.977Z,2.2
2019-05-30T19:44:22.823Z,2.2
2019-05-30T19:46:55.472Z,3.2
2019-05-30T19:49:28.289Z,2.3
2019-05-30T19:52:02.526Z,1.9
2019-05-30T19:54:35.554Z,4.4
2019-05-30T19:57:09.336Z,3
2019-05-30T19:59:41.719Z,2.5
2019-05-30T20:02:14.326Z,3.2
2019-05-30T20:04:46.727Z,2.3
2019-05-30T20:07:19.099Z,2.3
2019-05-30T20:10:00.760Z,2.6
2019-05-30T20:12:32.820Z,2.5
2019-05-30T20:15:06.618Z,2.8
2019-05-30T20:17:39.755Z,4.7
2019-05-30T20:20:13.829Z,4.1
2019-05-30T20:22:46.347Z,2.3
2019-05-30T20:25:19.523Z,4.3
2019-05-30T20:27:51.968Z,3.5
2019-05-30T20:30:24.639Z,1.9
2019-05-30T20:32:57.166Z,2.9
2019-05-30T20:35:29.629Z,5.1
2019-05-30T20:38:05.299Z,2.5
2019-05-30T20:40:37.069Z,3.8
2019-05-30T20:43:10.741Z,1.7
2019-05-30T20:45:46.751Z,2
2019-05-30T20:48:21.766Z,3.3
2019-05-30T20:50:53.551Z,1.9
2019-05-30T20:53:25.575Z,3
2019-05-30T20:55:58.348Z,1.8
2019-05-30T20:58:30.542Z,2.8
2019-05-30T21:01:02.339Z,1
2019-05-30T21:03:35.568Z,2
2019-05-30T21:06:08.532Z,2.7
2019-05-30T21:08:41.248Z,1.9
2019-05-30T21:11:14.969Z,2.6
2019-05-30T21:13:47.104Z,1.3
2019-05-30T21:16:19.157Z,2.4
2019-05-30T21:18:51.162Z,1.9
2019-05-30T21:21:23.268Z,0.6
2019-05-30T21:23:55.289Z,2.7
2019-05-30T21:26:27.700Z,1.4
2019-05-30T21:28:59.523Z,2.8
2019-05-30T21:31:25.506Z,1.2
2019-05-30T21:33:59.584Z,1.3
2019-05-30T21:36:34.002Z,1.3
2019-05-30T21:39:07.899Z,1.2
2019-05-30T21:41:42.536Z,4.9
2019-05-30T21:44:17.890Z,2.4
2019-05-30T21:46:51.784Z,1.1
2019-05-30T21:49:25.819Z,1.3
2019-05-30T21:51:59.939Z,1.4
2019-05-30T21:54:34.716Z,2
2019-05-30T21:57:09.375Z,3.7
2019-05-30T21:59:44.297Z,3.5
2019-05-30T22:02:19.923Z,1.3
2019-05-30T22:04:53.757Z,1.2
2019-05-30T22:07:27.773Z,1.8
2019-05-30T22:10:02.472Z,2.1
2019-05-30T22:12:36.336Z,1.3
2019-05-30T22:15:10.384Z,1.7
2019-05-30T22:17:44.380Z,1.3
2019-05-30T22:20:19.291Z,3.7
2019-05-30T22:22:53.488Z,2
2019-05-30T22:25:25.977Z,1.4
2019-05-30T22:27:58.745Z,2.3
2019-05-30T22:30:31.019Z,1.8
2019-05-30T22:33:03.498Z,1.7
2019-05-30T22:35:35.976Z,0.7
2019-05-30T22:38:08.352Z,3.8
2019-05-30T22:40:40.667Z,2.1
2019-05-30T22:43:24.740Z,1.8
2019-05-30T22:45:54.053Z,2
2019-05-30T22:48:26.502Z,2.5
2019-05-30T22:50:58.975Z,2.5
2019-05-30T22:53:31.646Z,2.4
2019-05-30T22:56:03.943Z,0.8
2019-05-30T22:58:37.156Z,2.3
2019-05-30T23:01:09.541Z,1.2
2019-05-30T23:03:42.182Z,1.3
2019-05-30T23:06:14.489Z,3.2
2019-05-30T23:08:48.415Z,2.1
2019-05-30T23:11:22.556Z,6
2019-05-30T23:13:56.163Z,4.7
2019-05-30T23:16:28.760Z,1.6
2019-05-30T23:19:02.059Z,4
2019-05-30T23:21:34.598Z,0.7
2019-05-30T23:24:07.587Z,2.6
2019-05-30T23:26:40.369Z,1.8
2019-05-30T23:29:13.720Z,1.5
2019-05-30T23:31:25.812Z,1.8
2019-05-30T23:33:59.666Z,2
2019-05-30T23:36:33.448Z,2
2019-05-30T23:39:07.296Z,1.5
2019-05-30T23:41:41.690Z,2.4
2019-05-30T23:44:15.944Z,1.3
2019-05-30T23:46:49.320Z,2
2019-05-30T23:49:22.995Z,1.3
2019-05-30T23:51:56.179Z,2.8
2019-05-30T23:54:30.072Z,1.4
2019-05-30T23:57:02.730Z,1.3
2019-05-30T23:59:35.572Z,1.7
